sensor_id;sensor_type;location;lat;lon;timestamp;P1;durP1;ratioP1;P2;durP2;ratioP2
13309;SDS011;6723;48.256;16.402;2023-02-01T00:01:43;3.07;;;1.67;;
13309;SDS011;6723;48.256;16.402;2023-02-01T00:04:09;1.30;;;1.20;;
13309;SDS011;6723;48.256;16.402;2023-02-01T00:06:35;1.60;;;1.43;;
13309;SDS011;6723;48.256;16.402;2023-02-01T00:09:01;2.03;;;1.40;;
13309;SDS011;6723;48.256;16.402;2023-02-01T00:11:28;1.37;;;1.20;;
13309;SDS011;6723;48.256;16.402;2023-02-01T00:13:53;1.50;;;1.23;;
13309;SDS011;6723;48.256;16.402;2023-02-01T00:16:27;2.00;;;1.60;;
13309;SDS011;6723;48.256;16.402;2023-02-01T00:19:05;1.57;;;1.47;;
13309;SDS011;6723;48.256;16.402;2023-02-01T00:21:33;1.97;;;1.70;;
13309;SDS011;6723;48.256;16.402;2023-02-01T00:23:59;2.40;;;1.40;;
13309;SDS011;6723;48.256;16.402;2023-02-01T00:26:26;2.03;;;1.37;;
13309;SDS011;6723;48.256;16.402;2023-02-01T00:28:55;1.20;;;1.10;;
13309;SDS011;6723;48.256;16.402;2023-02-01T00:31:21;1.73;;;1.47;;
13309;SDS011;6723;48.256;16.402;2023-02-01T00:33:48;1.33;;;1.07;;
13309;SDS011;6723;48.256;16.402;2023-02-01T00:36:13;3.23;;;1.17;;
13309;SDS011;6723;48.256;16.402;2023-02-01T00:38:40;1.50;;;1.30;;
13309;SDS011;6723;48.256;16.402;2023-02-01T00:41:07;1.30;;;1.20;;
13309;SDS011;6723;48.256;16.402;2023-02-01T00:43:38;2.13;;;1.37;;
13309;SDS011;6723;48.256;16.402;2023-02-01T00:46:04;1.40;;;1.30;;
13309;SDS011;6723;48.256;16.402;2023-02-01T00:48:30;1.70;;;1.27;;
13309;SDS011;6723;48.256;16.402;2023-02-01T00:51:04;3.03;;;1.40;;
13309;SDS011;6723;48.256;16.402;2023-02-01T00:53:32;1.40;;;1.30;;
13309;SDS011;6723;48.256;16.402;2023-02-01T00:55:59;1.53;;;1.40;;
13309;SDS011;6723;48.256;16.402;2023-02-01T00:58:24;1.30;;;1.20;;
13309;SDS011;6723;48.256;16.402;2023-02-01T01:01:51;2.00;;;1.80;;
13309;SDS011;6723;48.256;16.402;2023-02-01T01:03:52;1.90;;;1.53;;
13309;SDS011;6723;48.256;16.402;2023-02-01T01:06:25;2.80;;;1.87;;
13309;SDS011;6723;48.256;16.402;2023-02-01T01:08:53;2.07;;;1.53;;
13309;SDS011;6723;48.256;16.402;2023-02-01T01:11:26;2.43;;;1.47;;
13309;SDS011;6723;48.256;16.402;2023-02-01T01:13:55;3.30;;;2.07;;
13309;SDS011;6723;48.256;16.402;2023-02-01T01:16:22;1.60;;;1.37;;
13309;SDS011;6723;48.256;16.402;2023-02-01T01:18:50;2.00;;;1.80;;
13309;SDS011;6723;48.256;16.402;2023-02-01T01:21:16;3.17;;;2.00;;
13309;SDS011;6723;48.256;16.402;2023-02-01T01:23:43;1.70;;;1.60;;
13309;SDS011;6723;48.256;16.402;2023-02-01T01:26:18;1.60;;;1.50;;
13309;SDS011;6723;48.256;16.402;2023-02-01T01:28:47;2.43;;;2.00;;
13309;SDS011;6723;48.256;16.402;2023-02-01T01:31:14;1.57;;;1.30;;
13309;SDS011;6723;48.256;16.402;2023-02-01T01:33:41;2.07;;;1.60;;
13309;SDS011;6723;48.256;16.402;2023-02-01T01:36:09;1.77;;;1.67;;
13309;SDS011;6723;48.256;16.402;2023-02-01T01:38:41;1.50;;;1.40;;
13309;SDS011;6723;48.256;16.402;2023-02-01T01:41:07;1.87;;;1.33;;
13309;SDS011;6723;48.256;16.402;2023-02-01T01:43:57;1.50;;;1.40;;
13309;SDS011;6723;48.256;16.402;2023-02-01T01:48:53;0.83;;;0.83;;
13309;SDS011;6723;48.256;16.402;2023-02-01T01:51:38;1.47;;;1.37;;
13309;SDS011;6723;48.256;16.402;2023-02-01T01:56:42;1.33;;;1.17;;
13309;SDS011;6723;48.256;16.402;2023-02-01T01:59:11;2.10;;;1.60;;
13309;SDS011;6723;48.256;16.402;2023-02-01T02:01:38;1.90;;;1.80;;
13309;SDS011;6723;48.256;16.402;2023-02-01T02:04:03;2.00;;;1.70;;
13309;SDS011;6723;48.256;16.402;2023-02-01T02:06:52;2.07;;;1.60;;
13309;SDS011;6723;48.256;16.402;2023-02-01T02:09:20;1.73;;;1.50;;
13309;SDS011;6723;48.256;16.402;2023-02-01T02:11:47;1.83;;;1.40;;
13309;SDS011;6723;48.256;16.402;2023-02-01T02:14:13;2.97;;;1.70;;
13309;SDS011;6723;48.256;16.402;2023-02-01T02:24:50;2.50;;;1.63;;
13309;SDS011;6723;48.256;16.402;2023-02-01T02:36:36;2.20;;;1.83;;
13309;SDS011;6723;48.256;16.402;2023-02-01T02:41:10;1.97;;;1.67;;
13309;SDS011;6723;48.256;16.402;2023-02-01T02:44:57;1.40;;;1.23;;
13309;SDS011;6723;48.256;16.402;2023-02-01T02:48:32;2.07;;;1.80;;
13309;SDS011;6723;48.256;16.402;2023-02-01T02:50:44;1.43;;;1.30;;
13309;SDS011;6723;48.256;16.402;2023-02-01T02:53:57;2.23;;;1.40;;
13309;SDS011;6723;48.256;16.402;2023-02-01T02:56:42;2.37;;;1.97;;
13309;SDS011;6723;48.256;16.402;2023-02-01T03:02:34;2.10;;;1.90;;
13309;SDS011;6723;48.256;16.402;2023-02-01T03:05:20;2.73;;;2.07;;
13309;SDS011;6723;48.256;16.402;2023-02-01T03:12:59;2.90;;;1.80;;
13309;SDS011;6723;48.256;16.402;2023-02-01T03:18:11;2.37;;;1.33;;
13309;SDS011;6723;48.256;16.402;2023-02-01T03:20:42;2.80;;;1.90;;
13309;SDS011;6723;48.256;16.402;2023-02-01T03:23:11;1.90;;;1.70;;
13309;SDS011;6723;48.256;16.402;2023-02-01T03:25:40;2.00;;;1.70;;
13309;SDS011;6723;48.256;16.402;2023-02-01T03:28:08;2.03;;;1.70;;
13309;SDS011;6723;48.256;16.402;2023-02-01T03:30:38;2.20;;;1.77;;
13309;SDS011;6723;48.256;16.402;2023-02-01T03:33:14;2.13;;;1.93;;
13309;SDS011;6723;48.256;16.402;2023-02-01T03:38:30;2.00;;;1.60;;
13309;SDS011;6723;48.256;16.402;2023-02-01T03:41:08;2.10;;;1.90;;
13309;SDS011;6723;48.256;16.402;2023-02-01T03:43:37;2.57;;;1.90;;
13309;SDS011;6723;48.256;16.402;2023-02-01T03:46:14;2.53;;;1.60;;
13309;SDS011;6723;48.256;16.402;2023-02-01T03:48:46;1.80;;;1.60;;
13309;SDS011;6723;48.256;16.402;2023-02-01T03:51:15;1.90;;;1.70;;
13309;SDS011;6723;48.256;16.402;2023-02-01T03:53:42;1.73;;;1.37;;
13309;SDS011;6723;48.256;16.402;2023-02-01T03:56:12;2.03;;;1.70;;
13309;SDS011;6723;48.256;16.402;2023-02-01T03:58:38;1.43;;;1.33;;
13309;SDS011;6723;48.256;16.402;2023-02-01T04:01:05;2.10;;;1.60;;
13309;SDS011;6723;48.256;16.402;2023-02-01T04:03:30;2.97;;;1.80;;
13309;SDS011;6723;48.256;16.402;2023-02-01T04:05:57;2.30;;;1.80;;
13309;SDS011;6723;48.256;16.402;2023-02-01T04:11:04;3.10;;;1.70;;
13309;SDS011;6723;48.256;16.402;2023-02-01T04:13:30;4.03;;;2.10;;
13309;SDS011;6723;48.256;16.402;2023-02-01T04:15:56;2.20;;;2.00;;
13309;SDS011;6723;48.256;16.402;2023-02-01T04:18:21;3.33;;;2.40;;
13309;SDS011;6723;48.256;16.402;2023-02-01T04:20:47;2.20;;;2.00;;
13309;SDS011;6723;48.256;16.402;2023-02-01T04:23:13;2.50;;;1.93;;
13309;SDS011;6723;48.256;16.402;2023-02-01T04:25:40;2.93;;;2.37;;
13309;SDS011;6723;48.256;16.402;2023-02-01T04:28:06;2.53;;;2.33;;
13309;SDS011;6723;48.256;16.402;2023-02-01T04:30:32;3.93;;;2.43;;
13309;SDS011;6723;48.256;16.402;2023-02-01T04:32:58;2.73;;;2.40;;
13309;SDS011;6723;48.256;16.402;2023-02-01T04:35:23;3.00;;;2.70;;
13309;SDS011;6723;48.256;16.402;2023-02-01T04:37:49;2.87;;;2.50;;
13309;SDS011;6723;48.256;16.402;2023-02-01T04:40:15;2.17;;;1.97;;
13309;SDS011;6723;48.256;16.402;2023-02-01T04:42:40;3.03;;;2.60;;
13309;SDS011;6723;48.256;16.402;2023-02-01T04:45:06;2.63;;;2.37;;
13309;SDS011;6723;48.256;16.402;2023-02-01T04:47:33;3.70;;;2.73;;
13309;SDS011;6723;48.256;16.402;2023-02-01T04:49:59;3.40;;;2.77;;
13309;SDS011;6723;48.256;16.402;2023-02-01T04:52:25;3.83;;;2.77;;
13309;SDS011;6723;48.256;16.402;2023-02-01T04:54:52;2.70;;;2.50;;
13309;SDS011;6723;48.256;16.402;2023-02-01T04:57:19;3.73;;;2.60;;
13309;SDS011;6723;48.256;16.402;2023-02-01T04:59:45;2.40;;;2.20;;
13309;SDS011;6723;48.256;16.402;2023-02-01T05:02:11;3.83;;;2.87;;
13309;SDS011;6723;48.256;16.402;2023-02-01T05:04:36;2.33;;;1.73;;
13309;SDS011;6723;48.256;16.402;2023-02-01T05:07:02;2.97;;;2.30;;
13309;SDS011;6723;48.256;16.402;2023-02-01T05:09:28;3.40;;;2.57;;
13309;SDS011;6723;48.256;16.402;2023-02-01T05:11:54;2.80;;;2.30;;
13309;SDS011;6723;48.256;16.402;2023-02-01T05:14:38;3.30;;;2.50;;
13309;SDS011;6723;48.256;16.402;2023-02-01T05:17:04;2.43;;;1.73;;
13309;SDS011;6723;48.256;16.402;2023-02-01T05:19:30;2.77;;;2.20;;
13309;SDS011;6723;48.256;16.402;2023-02-01T05:21:55;3.60;;;2.13;;
13309;SDS011;6723;48.256;16.402;2023-02-01T05:24:21;2.70;;;2.30;;
13309;SDS011;6723;48.256;16.402;2023-02-01T05:26:48;2.67;;;2.20;;
13309;SDS011;6723;48.256;16.402;2023-02-01T05:29:14;2.67;;;2.40;;
13309;SDS011;6723;48.256;16.402;2023-02-01T05:31:41;2.20;;;1.93;;
13309;SDS011;6723;48.256;16.402;2023-02-01T05:34:12;2.90;;;2.30;;
13309;SDS011;6723;48.256;16.402;2023-02-01T05:36:39;2.93;;;1.97;;
13309;SDS011;6723;48.256;16.402;2023-02-01T05:39:04;4.20;;;2.23;;
13309;SDS011;6723;48.256;16.402;2023-02-01T05:41:30;4.47;;;2.80;;
13309;SDS011;6723;48.256;16.402;2023-02-01T05:43:56;3.67;;;2.90;;
13309;SDS011;6723;48.256;16.402;2023-02-01T05:46:22;3.73;;;2.73;;
13309;SDS011;6723;48.256;16.402;2023-02-01T05:48:48;3.00;;;2.33;;
13309;SDS011;6723;48.256;16.402;2023-02-01T05:51:14;2.97;;;2.40;;
13309;SDS011;6723;48.256;16.402;2023-02-01T05:53:40;4.40;;;2.77;;
13309;SDS011;6723;48.256;16.402;2023-02-01T05:56:06;2.93;;;2.40;;
13309;SDS011;6723;48.256;16.402;2023-02-01T05:58:32;3.17;;;2.80;;
13309;SDS011;6723;48.256;16.402;2023-02-01T06:01:01;3.10;;;2.50;;
13309;SDS011;6723;48.256;16.402;2023-02-01T06:03:28;3.10;;;2.80;;
13309;SDS011;6723;48.256;16.402;2023-02-01T06:05:54;2.70;;;2.13;;
13309;SDS011;6723;48.256;16.402;2023-02-01T06:08:20;2.97;;;2.57;;
13309;SDS011;6723;48.256;16.402;2023-02-01T06:10:46;4.20;;;2.70;;
13309;SDS011;6723;48.256;16.402;2023-02-01T06:13:12;3.53;;;2.63;;
13309;SDS011;6723;48.256;16.402;2023-02-01T06:15:37;3.30;;;2.60;;
13309;SDS011;6723;48.256;16.402;2023-02-01T06:18:03;2.97;;;2.30;;
13309;SDS011;6723;48.256;16.402;2023-02-01T06:20:29;2.70;;;2.23;;
13309;SDS011;6723;48.256;16.402;2023-02-01T06:22:55;3.07;;;2.77;;
13309;SDS011;6723;48.256;16.402;2023-02-01T06:25:21;2.40;;;2.20;;
13309;SDS011;6723;48.256;16.402;2023-02-01T06:27:47;2.63;;;2.03;;
13309;SDS011;6723;48.256;16.402;2023-02-01T06:30:13;3.73;;;2.73;;
13309;SDS011;6723;48.256;16.402;2023-02-01T06:32:39;3.03;;;2.40;;
13309;SDS011;6723;48.256;16.402;2023-02-01T06:35:09;4.30;;;3.33;;
13309;SDS011;6723;48.256;16.402;2023-02-01T06:37:41;4.83;;;2.63;;
13309;SDS011;6723;48.256;16.402;2023-02-01T06:40:07;2.63;;;2.43;;
13309;SDS011;6723;48.256;16.402;2023-02-01T06:42:36;2.80;;;2.20;;
13309;SDS011;6723;48.256;16.402;2023-02-01T06:45:01;7.57;;;2.27;;
13309;SDS011;6723;48.256;16.402;2023-02-01T06:47:28;3.33;;;2.10;;
13309;SDS011;6723;48.256;16.402;2023-02-01T06:49:53;5.33;;;3.03;;
13309;SDS011;6723;48.256;16.402;2023-02-01T06:52:19;3.40;;;2.70;;
13309;SDS011;6723;48.256;16.402;2023-02-01T06:54:45;3.20;;;2.90;;
13309;SDS011;6723;48.256;16.402;2023-02-01T06:57:11;3.20;;;2.90;;
13309;SDS011;6723;48.256;16.402;2023-02-01T06:59:36;3.57;;;2.27;;
13309;SDS011;6723;48.256;16.402;2023-02-01T07:02:02;2.97;;;2.57;;
13309;SDS011;6723;48.256;16.402;2023-02-01T07:04:28;3.37;;;2.87;;
13309;SDS011;6723;48.256;16.402;2023-02-01T07:06:55;3.27;;;2.60;;
13309;SDS011;6723;48.256;16.402;2023-02-01T07:09:21;2.90;;;2.60;;
13309;SDS011;6723;48.256;16.402;2023-02-01T07:11:46;3.07;;;2.63;;
13309;SDS011;6723;48.256;16.402;2023-02-01T07:14:12;3.43;;;2.20;;
13309;SDS011;6723;48.256;16.402;2023-02-01T07:16:38;2.47;;;2.20;;
13309;SDS011;6723;48.256;16.402;2023-02-01T07:19:04;2.40;;;2.03;;
13309;SDS011;6723;48.256;16.402;2023-02-01T07:21:30;2.50;;;2.30;;
13309;SDS011;6723;48.256;16.402;2023-02-01T07:23:56;3.07;;;2.37;;
13309;SDS011;6723;48.256;16.402;2023-02-01T07:26:24;3.00;;;2.47;;
13309;SDS011;6723;48.256;16.402;2023-02-01T07:28:50;3.60;;;2.40;;
13309;SDS011;6723;48.256;16.402;2023-02-01T07:31:16;2.30;;;2.10;;
13309;SDS011;6723;48.256;16.402;2023-02-01T07:33:46;2.57;;;2.10;;
13309;SDS011;6723;48.256;16.402;2023-02-01T07:36:22;2.03;;;1.87;;
13309;SDS011;6723;48.256;16.402;2023-02-01T07:38:48;2.40;;;2.03;;
13309;SDS011;6723;48.256;16.402;2023-02-01T07:41:14;2.23;;;2.00;;
13309;SDS011;6723;48.256;16.402;2023-02-01T07:43:41;2.77;;;1.97;;
13309;SDS011;6723;48.256;16.402;2023-02-01T07:46:07;2.30;;;1.83;;
13309;SDS011;6723;48.256;16.402;2023-02-01T07:48:35;2.77;;;1.70;;
13309;SDS011;6723;48.256;16.402;2023-02-01T07:51:04;1.77;;;1.63;;
13309;SDS011;6723;48.256;16.402;2023-02-01T07:53:35;2.40;;;2.20;;
13309;SDS011;6723;48.256;16.402;2023-02-01T07:56:02;2.50;;;2.30;;
13309;SDS011;6723;48.256;16.402;2023-02-01T07:58:29;3.07;;;2.10;;
13309;SDS011;6723;48.256;16.402;2023-02-01T08:00:54;2.90;;;1.73;;
13309;SDS011;6723;48.256;16.402;2023-02-01T08:03:40;2.60;;;2.30;;
13309;SDS011;6723;48.256;16.402;2023-02-01T08:06:05;2.07;;;1.77;;
13309;SDS011;6723;48.256;16.402;2023-02-01T08:08:32;2.53;;;1.90;;
13309;SDS011;6723;48.256;16.402;2023-02-01T08:11:02;3.07;;;2.40;;
13309;SDS011;6723;48.256;16.402;2023-02-01T08:13:30;2.63;;;2.40;;
13309;SDS011;6723;48.256;16.402;2023-02-01T08:16:04;2.70;;;2.50;;
13309;SDS011;6723;48.256;16.402;2023-02-01T08:18:32;3.00;;;2.30;;
13309;SDS011;6723;48.256;16.402;2023-02-01T08:21:03;2.93;;;2.63;;
13309;SDS011;6723;48.256;16.402;2023-02-01T08:23:30;2.60;;;2.10;;
13309;SDS011;6723;48.256;16.402;2023-02-01T08:26:12;3.03;;;2.73;;
13309;SDS011;6723;48.256;16.402;2023-02-01T08:28:41;6.20;;;2.57;;
13309;SDS011;6723;48.256;16.402;2023-02-01T08:31:13;3.07;;;2.40;;
13309;SDS011;6723;48.256;16.402;2023-02-01T08:33:41;4.27;;;3.07;;
13309;SDS011;6723;48.256;16.402;2023-02-01T08:36:09;3.60;;;2.53;;
13309;SDS011;6723;48.256;16.402;2023-02-01T08:38:36;4.30;;;2.77;;
13309;SDS011;6723;48.256;16.402;2023-02-01T08:41:14;2.53;;;2.20;;
13309;SDS011;6723;48.256;16.402;2023-02-01T08:43:45;3.27;;;2.03;;
13309;SDS011;6723;48.256;16.402;2023-02-01T08:46:12;2.90;;;2.60;;
13309;SDS011;6723;48.256;16.402;2023-02-01T08:48:39;2.73;;;2.30;;
13309;SDS011;6723;48.256;16.402;2023-02-01T08:51:15;3.33;;;2.37;;
13309;SDS011;6723;48.256;16.402;2023-02-01T08:53:42;2.83;;;1.80;;
13309;SDS011;6723;48.256;16.402;2023-02-01T08:56:10;3.87;;;2.67;;
13309;SDS011;6723;48.256;16.402;2023-02-01T08:58:37;3.17;;;2.37;;
13309;SDS011;6723;48.256;16.402;2023-02-01T09:01:04;6.63;;;2.53;;
13309;SDS011;6723;48.256;16.402;2023-02-01T09:03:31;3.37;;;2.37;;
13309;SDS011;6723;48.256;16.402;2023-02-01T09:06:03;5.87;;;2.23;;
13309;SDS011;6723;48.256;16.402;2023-02-01T09:08:31;3.00;;;2.50;;
13309;SDS011;6723;48.256;16.402;2023-02-01T09:11:01;2.87;;;2.20;;
13309;SDS011;6723;48.256;16.402;2023-02-01T09:13:30;2.70;;;2.10;;
13309;SDS011;6723;48.256;16.402;2023-02-01T09:15:55;3.73;;;2.77;;
13309;SDS011;6723;48.256;16.402;2023-02-01T09:18:22;3.50;;;2.63;;
13309;SDS011;6723;48.256;16.402;2023-02-01T09:20:47;3.10;;;2.50;;
13309;SDS011;6723;48.256;16.402;2023-02-01T09:23:13;3.63;;;2.70;;
13309;SDS011;6723;48.256;16.402;2023-02-01T09:25:42;3.70;;;3.27;;
13309;SDS011;6723;48.256;16.402;2023-02-01T09:28:10;5.17;;;3.47;;
13309;SDS011;6723;48.256;16.402;2023-02-01T09:30:36;2.87;;;2.50;;
13309;SDS011;6723;48.256;16.402;2023-02-01T09:33:03;5.77;;;3.20;;
13309;SDS011;6723;48.256;16.402;2023-02-01T09:35:30;3.23;;;2.83;;
13309;SDS011;6723;48.256;16.402;2023-02-01T09:37:56;3.13;;;2.80;;
13309;SDS011;6723;48.256;16.402;2023-02-01T09:40:30;3.20;;;2.90;;
13309;SDS011;6723;48.256;16.402;2023-02-01T09:43:09;4.33;;;3.30;;
13309;SDS011;6723;48.256;16.402;2023-02-01T09:48:26;3.90;;;2.53;;
13309;SDS011;6723;48.256;16.402;2023-02-01T09:50:57;3.27;;;2.67;;
13309;SDS011;6723;48.256;16.402;2023-02-01T09:53:29;3.80;;;2.57;;
13309;SDS011;6723;48.256;16.402;2023-02-01T09:56:06;3.23;;;2.50;;
13309;SDS011;6723;48.256;16.402;2023-02-01T09:58:37;2.10;;;1.87;;
13309;SDS011;6723;48.256;16.402;2023-02-01T10:01:12;2.77;;;2.50;;
13309;SDS011;6723;48.256;16.402;2023-02-01T10:03:47;3.10;;;2.20;;
13309;SDS011;6723;48.256;16.402;2023-02-01T10:06:26;3.27;;;2.80;;
13309;SDS011;6723;48.256;16.402;2023-02-01T10:11:51;2.30;;;1.97;;
13309;SDS011;6723;48.256;16.402;2023-02-01T10:22:33;1.87;;;1.67;;
13309;SDS011;6723;48.256;16.402;2023-02-01T10:27:45;2.33;;;1.63;;
13309;SDS011;6723;48.256;16.402;2023-02-01T10:32:45;2.00;;;1.40;;
13309;SDS011;6723;48.256;16.402;2023-02-01T10:35:15;2.07;;;1.60;;
13309;SDS011;6723;48.256;16.402;2023-02-01T10:37:43;3.70;;;1.53;;
13309;SDS011;6723;48.256;16.402;2023-02-01T10:42:44;1.50;;;1.40;;
13309;SDS011;6723;48.256;16.402;2023-02-01T10:45:13;3.53;;;1.40;;
13309;SDS011;6723;48.256;16.402;2023-02-01T10:47:43;2.50;;;1.40;;
13309;SDS011;6723;48.256;16.402;2023-02-01T10:55:52;1.60;;;1.30;;
13309;SDS011;6723;48.256;16.402;2023-02-01T10:58:31;1.33;;;1.20;;
13309;SDS011;6723;48.256;16.402;2023-02-01T11:01:00;1.20;;;1.10;;
13309;SDS011;6723;48.256;16.402;2023-02-01T11:08:47;1.57;;;1.47;;
13309;SDS011;6723;48.256;16.402;2023-02-01T11:11:15;1.40;;;1.17;;
13309;SDS011;6723;48.256;16.402;2023-02-01T11:13:42;2.13;;;1.30;;
13309;SDS011;6723;48.256;16.402;2023-02-01T11:16:11;1.70;;;1.40;;
13309;SDS011;6723;48.256;16.402;2023-02-01T11:18:39;1.60;;;1.50;;
13309;SDS011;6723;48.256;16.402;2023-02-01T11:21:06;2.67;;;1.60;;
13309;SDS011;6723;48.256;16.402;2023-02-01T11:23:33;1.47;;;1.10;;
13309;SDS011;6723;48.256;16.402;2023-02-01T11:26:11;1.10;;;1.00;;
13309;SDS011;6723;48.256;16.402;2023-02-01T11:29:02;2.80;;;1.20;;
13309;SDS011;6723;48.256;16.402;2023-02-01T11:31:29;1.83;;;1.10;;
13309;SDS011;6723;48.256;16.402;2023-02-01T11:33:59;2.17;;;1.47;;
13309;SDS011;6723;48.256;16.402;2023-02-01T11:36:37;2.10;;;1.50;;
13309;SDS011;6723;48.256;16.402;2023-02-01T11:41:43;1.40;;;1.30;;
13309;SDS011;6723;48.256;16.402;2023-02-01T11:49:55;2.40;;;2.03;;
13309;SDS011;6723;48.256;16.402;2023-02-01T11:58:26;3.20;;;1.80;;
13309;SDS011;6723;48.256;16.402;2023-02-01T12:06:32;3.03;;;2.00;;
13309;SDS011;6723;48.256;16.402;2023-02-01T12:18:27;2.93;;;2.40;;
13309;SDS011;6723;48.256;16.402;2023-02-01T12:25:41;2.27;;;1.97;;
13309;SDS011;6723;48.256;16.402;2023-02-01T12:31:53;3.93;;;2.60;;
13309;SDS011;6723;48.256;16.402;2023-02-01T12:34:44;2.57;;;2.20;;
13309;SDS011;6723;48.256;16.402;2023-02-01T12:39:44;3.00;;;2.27;;
13309;SDS011;6723;48.256;16.402;2023-02-01T12:42:43;1.87;;;1.53;;
13309;SDS011;6723;48.256;16.402;2023-02-01T12:48:06;1.70;;;1.60;;
13309;SDS011;6723;48.256;16.402;2023-02-01T12:50:53;1.50;;;1.40;;
13309;SDS011;6723;48.256;16.402;2023-02-01T12:53:32;1.93;;;1.17;;
13309;SDS011;6723;48.256;16.402;2023-02-01T12:56:15;1.40;;;1.20;;
13309;SDS011;6723;48.256;16.402;2023-02-01T12:58:50;1.93;;;1.20;;
13309;SDS011;6723;48.256;16.402;2023-02-01T13:04:49;1.93;;;0.97;;
13309;SDS011;6723;48.256;16.402;2023-02-01T13:07:34;1.33;;;1.00;;
13309;SDS011;6723;48.256;16.402;2023-02-01T13:15:46;1.27;;;1.17;;
13309;SDS011;6723;48.256;16.402;2023-02-01T13:18:15;1.53;;;1.30;;
13309;SDS011;6723;48.256;16.402;2023-02-01T13:20:54;1.53;;;1.20;;
13309;SDS011;6723;48.256;16.402;2023-02-01T13:23:35;2.23;;;0.90;;
13309;SDS011;6723;48.256;16.402;2023-02-01T13:26:03;2.37;;;1.17;;
13309;SDS011;6723;48.256;16.402;2023-02-01T13:28:31;1.50;;;1.00;;
13309;SDS011;6723;48.256;16.402;2023-02-01T13:41:51;2.50;;;1.00;;
13309;SDS011;6723;48.256;16.402;2023-02-01T13:49:58;1.33;;;0.60;;
13309;SDS011;6723;48.256;16.402;2023-02-01T13:52:38;4.43;;;0.90;;
13309;SDS011;6723;48.256;16.402;2023-02-01T13:57:45;0.67;;;0.43;;
13309;SDS011;6723;48.256;16.402;2023-02-01T14:00:33;2.40;;;0.90;;
13309;SDS011;6723;48.256;16.402;2023-02-01T14:23:42;0.83;;;0.50;;
13309;SDS011;6723;48.256;16.402;2023-02-01T14:28:55;0.73;;;0.40;;
13309;SDS011;6723;48.256;16.402;2023-02-01T14:34:08;0.80;;;0.57;;
13309;SDS011;6723;48.256;16.402;2023-02-01T14:36:50;1.20;;;0.67;;
13309;SDS011;6723;48.256;16.402;2023-02-01T14:39:29;0.90;;;0.70;;
13309;SDS011;6723;48.256;16.402;2023-02-01T14:42:19;1.00;;;0.60;;
13309;SDS011;6723;48.256;16.402;2023-02-01T14:47:51;0.50;;;0.50;;
13309;SDS011;6723;48.256;16.402;2023-02-01T14:58:32;0.93;;;0.50;;
13309;SDS011;6723;48.256;16.402;2023-02-01T15:01:05;0.23;;;0.23;;
13309;SDS011;6723;48.256;16.402;2023-02-01T15:03:41;0.50;;;0.40;;
13309;SDS011;6723;48.256;16.402;2023-02-01T15:09:14;1.33;;;0.50;;
13309;SDS011;6723;48.256;16.402;2023-02-01T15:12:32;1.10;;;0.40;;
13309;SDS011;6723;48.256;16.402;2023-02-01T15:17:37;0.30;;;0.30;;
13309;SDS011;6723;48.256;16.402;2023-02-01T15:22:35;1.23;;;0.60;;
13309;SDS011;6723;48.256;16.402;2023-02-01T15:25:01;0.50;;;0.47;;
13309;SDS011;6723;48.256;16.402;2023-02-01T15:27:28;0.73;;;0.60;;
13309;SDS011;6723;48.256;16.402;2023-02-01T15:35:42;2.57;;;0.97;;
13309;SDS011;6723;48.256;16.402;2023-02-01T15:43:19;1.77;;;1.00;;
13309;SDS011;6723;48.256;16.402;2023-02-01T15:45:47;0.80;;;0.80;;
13309;SDS011;6723;48.256;16.402;2023-02-01T15:48:20;2.90;;;0.90;;
13309;SDS011;6723;48.256;16.402;2023-02-01T15:50:48;1.30;;;0.73;;
13309;SDS011;6723;48.256;16.402;2023-02-01T15:53:19;2.67;;;1.07;;
13309;SDS011;6723;48.256;16.402;2023-02-01T15:55:51;0.77;;;0.70;;
13309;SDS011;6723;48.256;16.402;2023-02-01T15:58:21;1.50;;;0.80;;
13309;SDS011;6723;48.256;16.402;2023-02-01T16:00:52;1.40;;;0.83;;
13309;SDS011;6723;48.256;16.402;2023-02-01T16:06:07;1.87;;;1.00;;
13309;SDS011;6723;48.256;16.402;2023-02-01T16:08:34;3.50;;;0.90;;
13309;SDS011;6723;48.256;16.402;2023-02-01T16:13:33;2.07;;;1.10;;
13309;SDS011;6723;48.256;16.402;2023-02-01T16:15:59;1.57;;;1.00;;
13309;SDS011;6723;48.256;16.402;2023-02-01T16:18:26;1.70;;;1.20;;
13309;SDS011;6723;48.256;16.402;2023-02-01T16:20:51;1.80;;;0.90;;
13309;SDS011;6723;48.256;16.402;2023-02-01T16:23:17;1.90;;;1.00;;
13309;SDS011;6723;48.256;16.402;2023-02-01T16:25:45;2.17;;;0.90;;
13309;SDS011;6723;48.256;16.402;2023-02-01T16:28:11;1.37;;;0.93;;
13309;SDS011;6723;48.256;16.402;2023-02-01T16:30:37;2.30;;;1.13;;
13309;SDS011;6723;48.256;16.402;2023-02-01T16:33:04;3.27;;;1.30;;
13309;SDS011;6723;48.256;16.402;2023-02-01T16:35:32;3.00;;;1.20;;
13309;SDS011;6723;48.256;16.402;2023-02-01T16:38:01;1.40;;;1.03;;
13309;SDS011;6723;48.256;16.402;2023-02-01T16:40:28;1.23;;;0.97;;
13309;SDS011;6723;48.256;16.402;2023-02-01T16:42:54;4.53;;;1.13;;
13309;SDS011;6723;48.256;16.402;2023-02-01T16:45:20;2.97;;;1.20;;
13309;SDS011;6723;48.256;16.402;2023-02-01T16:47:53;2.60;;;1.30;;
13309;SDS011;6723;48.256;16.402;2023-02-01T16:50:22;1.80;;;1.13;;
13309;SDS011;6723;48.256;16.402;2023-02-01T16:52:50;3.63;;;1.40;;
13309;SDS011;6723;48.256;16.402;2023-02-01T16:55:18;4.03;;;1.20;;
13309;SDS011;6723;48.256;16.402;2023-02-01T16:57:46;3.77;;;1.50;;
13309;SDS011;6723;48.256;16.402;2023-02-01T17:03:03;2.97;;;1.10;;
13309;SDS011;6723;48.256;16.402;2023-02-01T17:05:33;3.23;;;1.60;;
13309;SDS011;6723;48.256;16.402;2023-02-01T17:08:01;2.70;;;1.50;;
13309;SDS011;6723;48.256;16.402;2023-02-01T17:10:29;3.67;;;1.60;;
13309;SDS011;6723;48.256;16.402;2023-02-01T17:12:56;3.53;;;1.57;;
13309;SDS011;6723;48.256;16.402;2023-02-01T17:15:23;2.80;;;1.53;;
13309;SDS011;6723;48.256;16.402;2023-02-01T17:17:51;2.63;;;1.63;;
13309;SDS011;6723;48.256;16.402;2023-02-01T17:20:20;3.50;;;1.90;;
13309;SDS011;6723;48.256;16.402;2023-02-01T17:22:48;3.33;;;1.67;;
13309;SDS011;6723;48.256;16.402;2023-02-01T17:25:30;2.43;;;2.03;;
13309;SDS011;6723;48.256;16.402;2023-02-01T17:27:56;2.53;;;2.10;;
13309;SDS011;6723;48.256;16.402;2023-02-01T17:30:21;1.67;;;1.57;;
13309;SDS011;6723;48.256;16.402;2023-02-01T17:32:48;3.17;;;2.20;;
13309;SDS011;6723;48.256;16.402;2023-02-01T17:35:21;3.43;;;2.27;;
13309;SDS011;6723;48.256;16.402;2023-02-01T17:37:48;3.30;;;2.53;;
13309;SDS011;6723;48.256;16.402;2023-02-01T17:40:15;3.63;;;2.00;;
13309;SDS011;6723;48.256;16.402;2023-02-01T17:42:42;4.20;;;2.27;;
13309;SDS011;6723;48.256;16.402;2023-02-01T17:47:45;3.47;;;2.17;;
13309;SDS011;6723;48.256;16.402;2023-02-01T17:50:12;4.87;;;2.10;;
13309;SDS011;6723;48.256;16.402;2023-02-01T17:52:38;2.33;;;1.67;;
13309;SDS011;6723;48.256;16.402;2023-02-01T17:55:13;4.23;;;1.87;;
13309;SDS011;6723;48.256;16.402;2023-02-01T17:57:53;3.50;;;2.27;;
13309;SDS011;6723;48.256;16.402;2023-02-01T18:00:19;3.20;;;2.30;;
13309;SDS011;6723;48.256;16.402;2023-02-01T18:02:46;5.03;;;2.30;;
13309;SDS011;6723;48.256;16.402;2023-02-01T18:07:44;2.73;;;2.03;;
13309;SDS011;6723;48.256;16.402;2023-02-01T18:10:09;3.20;;;2.13;;
13309;SDS011;6723;48.256;16.402;2023-02-01T18:12:36;2.57;;;1.87;;
13309;SDS011;6723;48.256;16.402;2023-02-01T18:15:25;4.27;;;1.77;;
13309;SDS011;6723;48.256;16.402;2023-02-01T18:17:50;3.50;;;2.20;;
13309;SDS011;6723;48.256;16.402;2023-02-01T18:20:17;6.80;;;2.30;;
13309;SDS011;6723;48.256;16.402;2023-02-01T18:22:46;2.97;;;2.13;;
13309;SDS011;6723;48.256;16.402;2023-02-01T18:25:16;3.20;;;1.80;;
13309;SDS011;6723;48.256;16.402;2023-02-01T18:27:46;2.63;;;2.00;;
13309;SDS011;6723;48.256;16.402;2023-02-01T18:30:13;2.57;;;2.10;;
13309;SDS011;6723;48.256;16.402;2023-02-01T18:32:40;3.53;;;2.23;;
13309;SDS011;6723;48.256;16.402;2023-02-01T18:35:16;4.47;;;2.30;;
13309;SDS011;6723;48.256;16.402;2023-02-01T18:37:47;4.70;;;1.80;;
13309;SDS011;6723;48.256;16.402;2023-02-01T18:40:15;3.07;;;1.97;;